Time;durP1;ratioP1;P1;durP2;ratioP2;P2;SDS_P1;SDS_P2;PMS_P1;PMS_P2;Temp;Humidity;BMP_temperature;BMP_pressure;BME280_temperature;BME280_humidity;BME280_pressure;Samples;Min_cycle;Max_cycle;Signal;HPM_P1;HPM_P2
2021/06/20 00:00:27;;;;;;;;;;;;;;;22.04;58.10;100520.88;5095446;28;1012;-56
2021/06/20 00:02:52;;;;;;;;;;;;;;;22.05;57.83;100521.72;5095479;28;1955;-56
2021/06/20 00:05:17;;;;;;;;;;;;;;;22.06;58.11;100509.81;5095182;28;1581;-56
2021/06/20 00:07:42;;;;;;;;;;;;;;;22.04;57.72;100510.00;5095695;28;873;-55
2021/06/20 00:10:08;;;;;;;;;;;;;;;22.05;58.07;100500.00;5094931;28;1012;-57
2021/06/20 00:12:33;;;;;;;;;;;;;;;22.07;58.09;100487.09;5098169;28;1787;-56
2021/06/20 00:14:58;;;;;;;;;;;;;;;22.05;57.92;100503.56;5099400;28;1083;-56
2021/06/20 00:17:23;;;;;;;;;;;;;;;22.06;57.97;100498.97;5099104;28;832;-56
2021/06/20 00:19:48;;;;;;;;;;;;;;;22.02;58.08;100493.09;5099260;28;1008;-54
2021/06/20 00:22:13;;;;;;;;;;;;;;;22.04;58.19;100495.59;5099348;28;1875;-57
2021/06/20 00:24:39;;;;;;;;;;;;;;;22.04;58.28;100495.59;5099038;28;1963;-56
2021/06/20 00:27:04;;;;;;;;;;;;;;;22.03;58.17;100483.06;5098844;28;930;-57
2021/06/20 00:29:29;;;;;;;;;;;;;;;22.00;57.80;100465.28;5099183;28;1800;-56
2021/06/20 00:31:55;;;;;;;;;;;;;;;22.02;57.94;100446.13;5098654;28;1968;-56
2021/06/20 00:34:20;;;;;;;;;;;;;;;22.02;57.93;100432.53;5098936;28;923;-57
2021/06/20 00:36:46;;;;;;;;;;;;;;;22.00;57.96;100440.03;5098793;28;1091;-56
2021/06/20 00:39:11;;;;;;;;;;;;;;;22.00;58.16;100434.59;5098958;28;869;-57
2021/06/20 00:41:37;;;;;;;;;;;;;;;22.01;58.10;100431.69;5098502;28;992;-57
2021/06/20 00:44:03;;;;;;;;;;;;;;;22.00;57.83;100435.44;5098589;28;1957;-57
2021/06/20 00:46:28;;;;;;;;;;;;;;;22.01;58.08;100447.13;5098817;28;1008;-57
2021/06/20 00:48:54;;;;;;;;;;;;;;;22.00;58.15;100445.44;5098631;28;849;-56
2021/06/20 00:51:19;;;;;;;;;;;;;;;21.99;57.77;100460.84;5098267;28;874;-56
2021/06/20 00:53:44;;;;;;;;;;;;;;;21.99;58.25;100465.44;5098825;28;952;-57
2021/06/20 00:56:09;;;;;;;;;;;;;;;21.99;58.48;100451.88;5098863;28;1502;-56
2021/06/20 00:58:34;;;;;;;;;;;;;;;22.00;58.07;100440.88;5098304;28;822;-57
2021/06/20 01:00:59;;;;;;;;;;;;;;;21.99;57.92;100422.88;5098185;28;1871;-55
2021/06/20 01:03:24;;;;;;;;;;;;;;;22.00;58.14;100434.59;5098336;28;1906;-57
2021/06/20 01:05:49;;;;;;;;;;;;;;;21.99;58.41;100416.59;5098484;28;842;-57
2021/06/20 01:08:14;;;;;;;;;;;;;;;21.98;58.36;100429.31;5098260;28;848;-57
2021/06/20 01:10:40;;;;;;;;;;;;;;;21.98;58.30;100442.88;5098407;28;906;-57
2021/06/20 01:13:05;;;;;;;;;;;;;;;21.98;58.09;100431.19;5098687;28;1151;-58
2021/06/20 01:15:30;;;;;;;;;;;;;;;21.98;58.31;100442.03;5098287;28;913;-57
2021/06/20 01:17:55;;;;;;;;;;;;;;;21.96;57.92;100439.50;5098198;28;794;-57
2021/06/20 01:20:20;;;;;;;;;;;;;;;21.98;58.41;100425.75;5098169;28;1960;-56
2021/06/20 01:22:45;;;;;;;;;;;;;;;21.96;58.06;100412.38;5097646;28;814;-57
2021/06/20 01:25:10;;;;;;;;;;;;;;;21.98;58.58;100420.34;5098146;28;1913;-57
2021/06/20 01:27:35;;;;;;;;;;;;;;;21.97;58.25;100426.78;5098039;28;915;-57
2021/06/20 01:30:03;;;;;;;;;;;;;;;21.95;58.39;100426.13;5097698;28;799;-57
2021/06/20 01:32:29;;;;;;;;;;;;;;;21.95;58.55;100428.84;5097769;28;920;-56
2021/06/20 01:34:54;;;;;;;;;;;;;;;21.95;58.29;100409.84;5097829;28;854;-57
2021/06/20 01:37:19;;;;;;;;;;;;;;;21.96;58.37;100412.38;5097958;28;984;-54
2021/06/20 01:39:44;;;;;;;;;;;;;;;21.95;58.23;100405.25;5097120;28;1808;-56
2021/06/20 01:42:14;;;;;;;;;;;;;;;21.92;58.38;100383.91;5097413;28;1660;-56
2021/06/20 01:44:39;;;;;;;;;;;;;;;21.94;58.67;100378.31;5097793;28;1898;-57
2021/06/20 01:47:04;;;;;;;;;;;;;;;21.92;58.36;100367.63;5097820;28;1008;-57
2021/06/20 01:49:29;;;;;;;;;;;;;;;21.92;58.43;100362.22;5097605;28;1538;-56
2021/06/20 01:51:54;;;;;;;;;;;;;;;21.93;58.06;100365.75;5097392;28;1169;-56
2021/06/20 01:54:19;;;;;;;;;;;;;;;21.93;58.67;100368.47;5097782;28;1067;-56
2021/06/20 01:56:44;;;;;;;;;;;;;;;21.92;58.83;100358.66;5097687;28;949;-57
2021/06/20 01:59:09;;;;;;;;;;;;;;;21.90;58.43;100361.53;5096804;28;1727;-57
2021/06/20 02:01:34;;;;;;;;;;;;;;;21.90;58.51;100356.13;5079238;28;1910;-58
2021/06/20 02:04:00;;;;;;;;;;;;;;;21.91;58.80;100352.38;5097038;28;1889;-57
2021/06/20 02:06:25;;;;;;;;;;;;;;;21.92;58.59;100366.78;5079226;28;919;-57
2021/06/20 02:08:50;;;;;;;;;;;;;;;21.93;58.63;100379.34;5097089;28;947;-56
2021/06/20 02:11:15;;;;;;;;;;;;;;;21.92;58.15;100345.94;5096372;28;1687;-57
2021/06/20 02:13:40;;;;;;;;;;;;;;;21.91;58.56;100349.66;5096857;28;1775;-57
2021/06/20 02:16:05;;;;;;;;;;;;;;;21.88;58.68;100341.91;5096665;28;1028;-57
2021/06/20 02:18:30;;;;;;;;;;;;;;;21.88;58.91;100327.50;5096915;28;1765;-57
2021/06/20 02:20:55;;;;;;;;;;;;;;;21.89;58.18;100331.88;5097199;28;945;-57
2021/06/20 02:23:21;;;;;;;;;;;;;;;21.91;58.28;100337.97;5097088;28;1918;-56
2021/06/20 02:25:47;;;;;;;;;;;;;;;21.89;58.17;100323.75;5097156;28;928;-56
2021/06/20 02:28:12;;;;;;;;;;;;;;;21.88;58.05;100311.22;5097155;28;907;-56
2021/06/20 02:30:37;;;;;;;;;;;;;;;21.88;58.63;100322.06;5096824;28;1009;-56
2021/06/20 02:33:02;;;;;;;;;;;;;;;21.89;58.61;100326.47;5096778;28;898;-56
2021/06/20 02:35:28;;;;;;;;;;;;;;;21.88;58.43;100322.06;5095767;28;972;-57
2021/06/20 02:37:53;;;;;;;;;;;;;;;21.90;58.24;100336.28;5096163;28;1859;-57
2021/06/20 02:40:18;;;;;;;;;;;;;;;21.88;58.80;100338.34;5078610;28;896;-55
2021/06/20 02:42:43;;;;;;;;;;;;;;;21.89;58.44;100357.16;5096827;28;829;-56
2021/06/20 02:45:08;;;;;;;;;;;;;;;21.85;58.61;100355.00;5096377;28;1963;-55
2021/06/20 02:47:33;;;;;;;;;;;;;;;21.86;58.66;100356.66;5096087;28;1796;-57
2021/06/20 02:49:58;;;;;;;;;;;;;;;21.83;58.92;100353.31;5096150;28;1967;-56
2021/06/20 02:52:23;;;;;;;;;;;;;;;21.85;58.92;100360.44;5096287;28;866;-56
2021/06/20 02:54:52;;;;;;;;;;;;;;;21.83;58.19;100369.59;5096366;28;992;-56
2021/06/20 02:57:17;;;;;;;;;;;;;;;21.81;58.53;100362.66;5096129;28;1780;-58
2021/06/20 02:59:42;;;;;;;;;;;;;;;21.82;58.96;100364.34;5096176;28;1940;-57
2021/06/20 03:02:07;;;;;;;;;;;;;;;21.82;58.79;100359.78;5096321;28;797;-58
2021/06/20 03:04:32;;;;;;;;;;;;;;;21.83;58.93;100356.03;5096100;28;1897;-57
2021/06/20 03:06:57;;;;;;;;;;;;;;;21.81;58.58;100339.09;5096439;28;1540;-57
2021/06/20 03:09:22;;;;;;;;;;;;;;;21.82;59.13;100326.38;5095569;28;857;-57
2021/06/20 03:11:47;;;;;;;;;;;;;;;21.82;58.99;100324.50;5095438;28;1073;-55
2021/06/20 03:14:13;;;;;;;;;;;;;;;21.80;59.17;100321.13;5096133;28;829;-57
2021/06/20 03:16:38;;;;;;;;;;;;;;;21.82;58.50;100329.94;5096120;28;901;-57
2021/06/20 03:19:04;;;;;;;;;;;;;;;21.81;58.87;100343.69;5095584;28;1993;-57
2021/06/20 03:21:29;;;;;;;;;;;;;;;21.80;58.67;100356.41;5095869;28;840;-57
2021/06/20 03:23:54;;;;;;;;;;;;;;;21.79;58.62;100338.44;5095698;28;1902;-57
2021/06/20 03:26:19;;;;;;;;;;;;;;;21.78;58.52;100323.19;5096012;28;1636;-58
2021/06/20 03:28:44;;;;;;;;;;;;;;;21.80;58.71;100321.13;5095820;28;964;-55
2021/06/20 03:31:09;;;;;;;;;;;;;;;21.80;58.50;100329.28;5095745;28;852;-57
2021/06/20 03:33:34;;;;;;;;;;;;;;;21.81;58.55;100332.84;5095506;28;918;-56
2021/06/20 03:35:59;;;;;;;;;;;;;;;21.79;58.71;100335.72;5095548;28;838;-54
2021/06/20 03:38:24;;;;;;;;;;;;;;;21.80;59.10;100340.13;5095176;28;1828;-55
2021/06/20 03:40:49;;;;;;;;;;;;;;;21.80;58.74;100342.84;5095651;28;1181;-56
2021/06/20 03:43:14;;;;;;;;;;;;;;;21.79;58.48;100343.88;5095665;28;1889;-56
2021/06/20 03:45:40;;;;;;;;;;;;;;;21.80;58.54;100340.13;5095245;28;933;-57
2021/06/20 03:48:05;;;;;;;;;;;;;;;21.80;59.09;100342.84;5095477;28;821;-57
2021/06/20 03:50:30;;;;;;;;;;;;;;;21.78;58.53;100342.19;5095459;28;1067;-53
2021/06/20 03:52:55;;;;;;;;;;;;;;;21.79;58.63;100367.44;5095234;28;890;-55
2021/06/20 03:55:20;;;;;;;;;;;;;;;21.79;59.08;100367.44;5095166;28;1643;-58
2021/06/20 03:57:45;;;;;;;;;;;;;;;21.78;58.45;100380.16;5094985;28;1902;-59
2021/06/20 04:00:10;;;;;;;;;;;;;;;21.74;58.86;100365.25;5095119;28;1791;-57
2021/06/20 04:02:36;;;;;;;;;;;;;;;21.74;58.69;100348.16;5095710;28;901;-58
2021/06/20 04:05:01;;;;;;;;;;;;;;;21.75;58.78;100360.69;5077024;28;1955;-58
2021/06/20 04:07:26;;;;;;;;;;;;;;;21.75;58.61;100375.09;5095218;28;889;-58
2021/06/20 04:09:51;;;;;;;;;;;;;;;21.76;58.42;100384.06;5095330;28;1000;-58
2021/06/20 04:12:16;;;;;;;;;;;;;;;21.74;58.53;100378.81;5095046;28;1282;-58
2021/06/20 04:14:41;;;;;;;;;;;;;;;21.75;58.58;100393.22;5095316;28;1103;-57
2021/06/20 04:17:06;;;;;;;;;;;;;;;21.75;58.43;100387.81;5095098;28;1710;-58
2021/06/20 04:19:31;;;;;;;;;;;;;;;21.75;58.73;100385.94;5094834;28;897;-57
2021/06/20 04:21:56;;;;;;;;;;;;;;;21.75;58.51;100402.22;5095013;28;1704;-57
2021/06/20 04:24:21;;;;;;;;;;;;;;;21.74;59.17;100408.66;5095277;28;1906;-55
2021/06/20 04:26:46;;;;;;;;;;;;;;;21.74;58.74;100403.25;5095124;28;1815;-56
2021/06/20 04:29:11;;;;;;;;;;;;;;;21.72;59.02;100410.72;5095251;28;858;-57
2021/06/20 04:31:36;;;;;;;;;;;;;;;21.71;59.08;100397.31;5095269;28;1709;-57
2021/06/20 04:34:02;;;;;;;;;;;;;;;21.73;58.61;100414.25;5095258;28;854;-59
2021/06/20 04:36:27;;;;;;;;;;;;;;;21.72;59.10;100409.88;5095132;28;1817;-58
2021/06/20 04:38:52;;;;;;;;;;;;;;;21.71;58.64;100403.59;5095108;28;921;-58
2021/06/20 04:41:19;;;;;;;;;;;;;;;21.72;58.62;100383.59;5094959;28;1059;-58
2021/06/20 04:46:09;;;;;;;;;;;;;;;21.71;58.84;100381.06;5094267;28;2039;-57
2021/06/20 04:48:34;;;;;;;;;;;;;;;21.70;58.91;100379.38;5094903;28;1012;-58
2021/06/20 04:50:59;;;;;;;;;;;;;;;21.71;58.58;100378.34;5094513;28;905;-57
2021/06/20 04:53:24;;;;;;;;;;;;;;;21.71;58.96;100379.19;5093765;28;804;-57
2021/06/20 04:55:50;;;;;;;;;;;;;;;21.72;58.38;100391.72;5094931;28;1861;-56
2021/06/20 04:58:15;;;;;;;;;;;;;;;21.70;58.84;100398.34;5097534;28;1591;-58
2021/06/20 05:00:40;;;;;;;;;;;;;;;21.69;59.05;100394.78;5098315;28;1817;-57
2021/06/20 05:03:05;;;;;;;;;;;;;;;21.69;59.06;100397.50;5098680;28;1894;-57
2021/06/20 05:05:30;;;;;;;;;;;;;;;21.68;58.94;100382.25;5098255;28;1023;-57
2021/06/20 05:07:55;;;;;;;;;;;;;;;21.68;58.48;100403.97;5098446;28;939;-58
2021/06/20 05:10:20;;;;;;;;;;;;;;;21.70;58.84;100403.78;5098097;28;846;-57
2021/06/20 05:12:45;;;;;;;;;;;;;;;21.68;58.92;100406.66;5098203;28;1125;-57
2021/06/20 05:15:10;;;;;;;;;;;;;;;21.70;58.96;100411.91;5097764;28;873;-57
2021/06/20 05:17:35;;;;;;;;;;;;;;;21.68;58.64;100412.09;5098087;28;1941;-57
2021/06/20 05:20:00;;;;;;;;;;;;;;;21.69;58.77;100412.94;5098650;28;1796;-57
2021/06/20 05:22:25;;;;;;;;;;;;;;;21.67;58.64;100415.88;5097874;28;917;-58
2021/06/20 05:24:51;;;;;;;;;;;;;;;21.68;58.50;100414.81;5097746;28;1906;-59
2021/06/20 05:27:16;;;;;;;;;;;;;;;21.69;59.21;100421.06;5097721;28;966;-58
2021/06/20 05:29:41;;;;;;;;;;;;;;;21.69;59.03;100416.50;5097598;28;869;-58
2021/06/20 05:32:06;;;;;;;;;;;;;;;21.67;59.40;100413.16;5098140;28;929;-58
2021/06/20 05:34:31;;;;;;;;;;;;;;;21.66;58.82;100422.31;5097608;28;1060;-54
2021/06/20 05:36:56;;;;;;;;;;;;;;;21.67;58.88;100423.16;5097916;28;1746;-57
2021/06/20 05:39:21;;;;;;;;;;;;;;;21.68;59.03;100425.66;5097685;28;806;-61
2021/06/20 05:41:46;;;;;;;;;;;;;;;21.67;58.74;100434.84;5097538;28;1067;-58
2021/06/20 05:44:11;;;;;;;;;;;;;;;21.66;58.94;100435.03;5079525;28;1961;-58
2021/06/20 05:46:36;;;;;;;;;;;;;;;21.67;59.13;100425.88;5097554;28;980;-58
2021/06/20 05:49:02;;;;;;;;;;;;;;;21.66;58.48;100422.31;5098076;28;1668;-57
2021/06/20 05:51:27;;;;;;;;;;;;;;;21.64;59.05;100437.91;5079574;28;755;-57
2021/06/20 05:53:52;;;;;;;;;;;;;;;21.64;58.88;100440.63;5097345;28;1004;-56
2021/06/20 05:56:17;;;;;;;;;;;;;;;21.66;59.21;100448.59;5097157;28;1721;-57
2021/06/20 05:58:42;;;;;;;;;;;;;;;21.66;58.61;100454.84;5079354;28;1179;-58
2021/06/20 06:01:07;;;;;;;;;;;;;;;21.64;58.56;100462.31;5079283;28;732;-56
2021/06/20 06:03:32;;;;;;;;;;;;;;;21.64;58.54;100461.47;5097155;28;1902;-56
2021/06/20 06:05:58;;;;;;;;;;;;;;;21.64;58.42;100447.91;5097056;28;858;-55
2021/06/20 06:08:23;;;;;;;;;;;;;;;21.64;58.53;100456.91;5078869;28;934;-57
2021/06/20 06:10:48;;;;;;;;;;;;;;;21.66;59.00;100470.28;5096812;28;996;-57
2021/06/20 06:13:13;;;;;;;;;;;;;;;21.65;58.81;100469.44;5079050;28;1263;-58
2021/06/20 06:15:38;;;;;;;;;;;;;;;21.64;59.28;100458.75;5096619;28;1888;-57
2021/06/20 06:18:03;;;;;;;;;;;;;;;21.63;59.04;100460.63;5078814;28;1671;-57
2021/06/20 06:20:29;;;;;;;;;;;;;;;21.64;59.27;100466.91;5097270;28;833;-58
2021/06/20 06:22:55;;;;;;;;;;;;;;;21.63;58.95;100466.06;5078727;28;1088;-57
2021/06/20 06:25:20;;;;;;;;;;;;;;;21.63;59.42;100466.06;5097013;28;1968;-57
2021/06/20 06:27:46;;;;;;;;;;;;;;;21.64;58.94;100472.31;5096658;28;898;-56
2021/06/20 06:30:11;;;;;;;;;;;;;;;21.63;59.14;100470.63;5096584;28;1345;-57
2021/06/20 06:32:36;;;;;;;;;;;;;;;21.62;58.80;100480.63;5078734;28;1565;-57
2021/06/20 06:35:01;;;;;;;;;;;;;;;21.62;58.91;100483.34;5096544;28;1706;-57
2021/06/20 06:37:26;;;;;;;;;;;;;;;21.62;58.97;100485.22;5096955;28;1663;-57
2021/06/20 06:39:52;;;;;;;;;;;;;;;21.63;58.56;100492.34;5096468;28;1591;-58
2021/06/20 06:42:17;;;;;;;;;;;;;;;21.62;59.16;100488.78;5096422;28;794;-58
2021/06/20 06:44:42;;;;;;;;;;;;;;;21.64;58.57;100488.59;5096567;28;1963;-58
2021/06/20 06:47:07;;;;;;;;;;;;;;;21.63;58.94;100489.63;5096120;28;1571;-56
2021/06/20 06:49:32;;;;;;;;;;;;;;;21.63;58.76;100498.59;5096081;28;1064;-55
2021/06/20 06:51:57;;;;;;;;;;;;;;;21.64;59.22;100513.00;5096407;28;981;-57
2021/06/20 06:54:22;;;;;;;;;;;;;;;21.63;58.63;100520.28;5096276;28;1804;-56
2021/06/20 06:56:47;;;;;;;;;;;;;;;21.62;58.70;100526.75;5096420;28;1800;-58
2021/06/20 06:59:12;;;;;;;;;;;;;;;21.63;58.70;100522.16;5096177;28;1755;-57
2021/06/20 07:01:37;;;;;;;;;;;;;;;21.62;59.17;100517.75;5096591;28;901;-58
2021/06/20 07:04:03;;;;;;;;;;;;;;;21.62;59.17;100518.59;5095814;28;1951;-56
2021/06/20 07:06:28;;;;;;;;;;;;;;;21.62;58.84;100506.91;5095821;28;866;-58
2021/06/20 07:08:53;;;;;;;;;;;;;;;21.61;58.88;100500.66;5095899;28;866;-57
2021/06/20 07:11:18;;;;;;;;;;;;;;;21.61;59.23;100508.78;5095576;28;1196;-57
2021/06/20 07:13:43;;;;;;;;;;;;;;;21.63;58.63;100524.88;5095356;28;869;-57
2021/06/20 07:16:08;;;;;;;;;;;;;;;21.63;59.35;100517.59;5095373;28;1912;-56
2021/06/20 07:18:34;;;;;;;;;;;;;;;21.63;58.85;100511.31;5095868;28;837;-56
2021/06/20 07:20:59;;;;;;;;;;;;;;;21.63;59.34;100530.31;5095136;28;936;-56
2021/06/20 07:23:24;;;;;;;;;;;;;;;21.62;58.82;100534.88;5095239;28;1965;-57
2021/06/20 07:25:49;;;;;;;;;;;;;;;21.62;58.61;100543.00;5095343;28;1804;-57
2021/06/20 07:28:14;;;;;;;;;;;;;;;21.64;58.50;100553.69;5077498;28;843;-57
2021/06/20 07:30:39;;;;;;;;;;;;;;;21.62;59.05;100547.59;5096251;28;1024;-57
2021/06/20 07:33:05;;;;;;;;;;;;;;;21.62;59.02;100555.72;5095757;28;1019;-58
2021/06/20 07:35:30;;;;;;;;;;;;;;;21.61;59.42;100565.72;5095285;28;1120;-58
2021/06/20 07:37:55;;;;;;;;;;;;;;;21.61;59.39;100563.00;5077504;28;1138;-58
2021/06/20 07:40:20;;;;;;;;;;;;;;;21.63;59.13;100562.84;5095775;28;992;-58
2021/06/20 07:42:45;;;;;;;;;;;;;;;21.63;59.23;100562.84;5095548;28;992;-53
2021/06/20 07:45:10;;;;;;;;;;;;;;;21.63;59.01;100562.84;5095145;28;1973;-56
2021/06/20 07:47:36;;;;;;;;;;;;;;;21.63;58.95;100566.41;5095852;28;1730;-56
2021/06/20 07:50:01;;;;;;;;;;;;;;;21.61;58.84;100560.31;5095581;28;842;-56
2021/06/20 07:52:27;;;;;;;;;;;;;;;21.61;59.38;100544.03;5095238;28;1838;-58
2021/06/20 07:54:52;;;;;;;;;;;;;;;21.62;58.74;100547.59;5095328;28;1103;-58
2021/06/20 07:57:17;;;;;;;;;;;;;;;21.62;59.26;100543.00;5095554;28;806;-56
2021/06/20 07:59:42;;;;;;;;;;;;;;;21.63;58.60;100566.41;5095639;28;973;-57
2021/06/20 08:02:07;;;;;;;;;;;;;;;21.63;59.47;100558.25;5095330;28;1717;-57
2021/06/20 08:04:32;;;;;;;;;;;;;;;21.63;59.40;100554.72;5094990;28;1910;-56
2021/06/20 08:06:57;;;;;;;;;;;;;;;21.62;58.71;100556.56;5094975;28;831;-56
2021/06/20 08:09:22;;;;;;;;;;;;;;;21.64;59.10;100561.81;5095172;28;893;-56
2021/06/20 08:11:47;;;;;;;;;;;;;;;21.64;58.84;100564.53;5095435;28;1328;-56
2021/06/20 08:14:13;;;;;;;;;;;;;;;21.63;58.89;100571.81;5095074;28;1777;-55
2021/06/20 08:16:38;;;;;;;;;;;;;;;21.62;58.75;100575.56;5094893;28;795;-57
2021/06/20 08:19:03;;;;;;;;;;;;;;;21.63;59.26;100579.97;5094847;28;794;-56
2021/06/20 08:21:28;;;;;;;;;;;;;;;21.62;59.25;100572.00;5094869;28;992;-56
2021/06/20 08:23:53;;;;;;;;;;;;;;;21.63;59.01;100568.25;5095049;28;1910;-55
2021/06/20 08:26:18;;;;;;;;;;;;;;;21.63;59.47;100571.81;5094840;28;913;-56
2021/06/20 08:28:44;;;;;;;;;;;;;;;21.63;58.93;100577.25;5095335;28;866;-57
2021/06/20 08:31:09;;;;;;;;;;;;;;;21.64;59.34;100578.94;5095182;28;907;-56
2021/06/20 08:33:34;;;;;;;;;;;;;;;21.66;59.33;100586.91;5098302;28;1076;-57
2021/06/20 08:35:59;;;;;;;;;;;;;;;21.64;58.94;100589.78;5099031;28;881;-57
2021/06/20 08:38:24;;;;;;;;;;;;;;;21.66;58.75;100590.47;5098824;28;770;-56
2021/06/20 08:40:49;;;;;;;;;;;;;;;21.66;59.33;100601.31;5099363;28;995;-57
2021/06/20 08:43:14;;;;;;;;;;;;;;;21.66;59.44;100604.03;5098901;28;1901;-53
2021/06/20 08:45:39;;;;;;;;;;;;;;;21.65;59.32;100593.34;5098618;28;1830;-57
2021/06/20 08:48:04;;;;;;;;;;;;;;;21.64;59.60;100576.22;5099005;28;802;-58
2021/06/20 08:50:29;;;;;;;;;;;;;;;21.65;59.68;100580.63;5098932;28;1074;-58
2021/06/20 08:52:55;;;;;;;;;;;;;;;21.66;59.14;100579.59;5098841;28;852;-57
2021/06/20 08:55:20;;;;;;;;;;;;;;;21.67;59.34;100591.31;5098365;28;842;-56
2021/06/20 08:57:47;;;;;;;;;;;;;;;21.67;59.37;100603.00;5098823;28;786;-58
2021/06/20 09:00:13;;;;;;;;;;;;;;;21.68;59.53;100598.38;5098362;28;851;-58
2021/06/20 09:02:38;;;;;;;;;;;;;;;21.67;59.77;100594.88;5098999;28;1635;-59
2021/06/20 09:05:03;;;;;;;;;;;;;;;21.67;59.49;100605.72;5098448;28;1902;-58
2021/06/20 09:07:28;;;;;;;;;;;;;;;21.69;59.36;100609.06;5098476;28;842;-58
2021/06/20 09:09:53;;;;;;;;;;;;;;;21.71;60.15;100608.88;5098782;28;853;-57
2021/06/20 09:12:18;;;;;;;;;;;;;;;21.70;59.87;100612.63;5098534;28;1238;-57
2021/06/20 09:14:43;;;;;;;;;;;;;;;21.69;59.70;100613.63;5098043;28;1880;-58
2021/06/20 09:17:08;;;;;;;;;;;;;;;21.69;59.79;100613.63;5098145;28;945;-57
2021/06/20 09:19:33;;;;;;;;;;;;;;;21.70;59.42;100610.75;5098390;28;1659;-56
2021/06/20 09:22:01;;;;;;;;;;;;;;;21.68;59.97;100626.34;5097847;28;853;-57
2021/06/20 09:24:26;;;;;;;;;;;;;;;21.70;59.49;100623.47;5079595;28;1983;-56
2021/06/20 09:26:51;;;;;;;;;;;;;;;21.70;59.47;100640.59;5098260;28;957;-56
2021/06/20 09:29:16;;;;;;;;;;;;;;;21.71;59.62;100647.72;5097732;28;1738;-58
2021/06/20 09:31:41;;;;;;;;;;;;;;;21.71;59.36;100634.16;5097806;28;1052;-57
2021/06/20 09:34:06;;;;;;;;;;;;;;;21.72;59.22;100632.28;5097863;28;931;-57
2021/06/20 09:36:31;;;;;;;;;;;;;;;21.73;59.88;100634.81;5097755;28;996;-57
2021/06/20 09:38:56;;;;;;;;;;;;;;;21.72;59.73;100632.28;5079738;28;803;-58
2021/06/20 09:41:22;;;;;;;;;;;;;;;21.73;59.96;100633.97;5097604;28;924;-58
2021/06/20 09:43:47;;;;;;;;;;;;;;;21.75;59.50;100645.50;5097232;28;1893;-58
2021/06/20 09:46:12;;;;;;;;;;;;;;;21.73;59.47;100637.53;5097409;28;1944;-58
2021/06/20 09:48:37;;;;;;;;;;;;;;;21.75;59.34;100631.94;5097337;28;1932;-57
2021/06/20 09:51:02;;;;;;;;;;;;;;;21.74;59.80;100633.78;5097662;28;940;-57
2021/06/20 09:53:27;;;;;;;;;;;;;;;21.76;59.89;100634.47;5097620;28;980;-57
2021/06/20 09:55:52;;;;;;;;;;;;;;;21.76;59.90;100639.06;5097192;28;1236;-58
2021/06/20 09:58:17;;;;;;;;;;;;;;;21.75;59.60;100638.19;5097757;28;1652;-58
2021/06/20 10:00:42;;;;;;;;;;;;;;;21.76;59.82;100637.19;5097086;28;956;-58
2021/06/20 10:03:07;;;;;;;;;;;;;;;21.76;59.32;100642.59;5097395;28;857;-57
2021/06/20 10:05:32;;;;;;;;;;;;;;;21.77;59.54;100643.44;5097155;28;1955;-57
2021/06/20 10:07:58;;;;;;;;;;;;;;;21.77;59.69;100644.31;5097131;28;845;-57
2021/06/20 10:10:23;;;;;;;;;;;;;;;21.77;59.74;100641.59;5097330;28;856;-57
2021/06/20 10:12:48;;;;;;;;;;;;;;;21.77;59.52;100636.16;5097497;28;1148;-59
2021/06/20 10:15:13;;;;;;;;;;;;;;;21.78;59.70;100637.84;5096511;28;1845;-59
2021/06/20 10:17:38;;;;;;;;;;;;;;;21.78;59.29;100643.28;5097199;28;1495;-59
2021/06/20 10:20:03;;;;;;;;;;;;;;;21.79;59.97;100653.09;5097293;28;1000;-58
2021/06/20 10:22:28;;;;;;;;;;;;;;;21.79;59.70;100644.97;5097323;28;963;-59
2021/06/20 10:24:53;;;;;;;;;;;;;;;21.79;59.65;100646.84;5096813;28;1914;-57
2021/06/20 10:27:19;;;;;;;;;;;;;;;21.78;59.34;100643.28;5097223;28;840;-57
2021/06/20 10:29:44;;;;;;;;;;;;;;;21.79;59.90;100639.53;5096672;28;822;-58
2021/06/20 10:32:09;;;;;;;;;;;;;;;21.80;59.55;100648.53;5097128;28;1003;-58
2021/06/20 10:34:34;;;;;;;;;;;;;;;21.80;59.50;100646.66;5096929;28;924;-58
2021/06/20 10:36:59;;;;;;;;;;;;;;;21.80;59.67;100641.25;5096918;28;1443;-58
2021/06/20 10:39:24;;;;;;;;;;;;;;;21.81;60.08;100648.34;5096830;28;849;-58
2021/06/20 10:41:49;;;;;;;;;;;;;;;21.82;60.32;100646.50;5096704;28;854;-57
2021/06/20 10:44:14;;;;;;;;;;;;;;;21.81;59.82;100645.66;5096250;28;1898;-58
2021/06/20 10:46:41;;;;;;;;;;;;;;;21.82;59.99;100643.78;5096718;28;861;-58
2021/06/20 10:49:06;;;;;;;;;;;;;;;21.85;59.39;100648.00;5096346;28;1138;-58
2021/06/20 10:51:31;;;;;;;;;;;;;;;21.84;59.30;100649.88;5096630;28;1013;-57
2021/06/20 10:53:56;;;;;;;;;;;;;;;21.84;59.63;100652.59;5095858;28;1965;-56
2021/06/20 10:56:21;;;;;;;;;;;;;;;21.84;59.92;100647.16;5077598;28;828;-58
2021/06/20 10:58:47;;;;;;;;;;;;;;;21.85;59.91;100658.84;5096459;28;929;-58
2021/06/20 11:01:12;;;;;;;;;;;;;;;21.86;59.99;100660.53;5096223;28;941;-58
2021/06/20 11:03:37;;;;;;;;;;;;;;;21.85;59.73;100664.28;5096087;28;1953;-59
2021/06/20 11:06:02;;;;;;;;;;;;;;;21.85;59.59;100650.72;5096100;28;1720;-59
2021/06/20 11:08:27;;;;;;;;;;;;;;;21.86;59.82;100649.66;5096047;28;890;-59
2021/06/20 11:10:52;;;;;;;;;;;;;;;21.86;59.83;100650.50;5095560;28;861;-58
2021/06/20 11:13:17;;;;;;;;;;;;;;;21.86;59.30;100649.66;5095802;28;1195;-58
2021/06/20 11:15:42;;;;;;;;;;;;;;;21.87;59.67;100665.78;5095573;28;1342;-59
2021/06/20 11:18:07;;;;;;;;;;;;;;;21.87;59.29;100667.63;5095761;28;921;-59
2021/06/20 11:20:33;;;;;;;;;;;;;;;21.88;59.41;100658.47;5095568;28;806;-58
2021/06/20 11:22:58;;;;;;;;;;;;;;;21.89;59.47;100660.16;5095808;28;1818;-58
2021/06/20 11:25:23;;;;;;;;;;;;;;;21.89;59.66;100668.31;5096137;28;1914;-58
2021/06/20 11:27:48;;;;;;;;;;;;;;;21.88;58.99;100664.75;5095785;28;931;-58
2021/06/20 11:30:13;;;;;;;;;;;;;;;21.88;59.72;100663.91;5095649;28;937;-58
2021/06/20 11:32:38;;;;;;;;;;;;;;;21.89;59.60;100661.03;5095923;28;1000;-58
2021/06/20 11:35:04;;;;;;;;;;;;;;;21.90;59.22;100664.56;5095700;28;1880;-58
2021/06/20 11:37:29;;;;;;;;;;;;;;;21.89;59.48;100661.03;5095537;28;814;-57
2021/06/20 11:39:54;;;;;;;;;;;;;;;21.90;59.29;100678.13;5096043;28;853;-58
2021/06/20 11:42:19;;;;;;;;;;;;;;;21.88;59.47;100664.75;5077203;28;1096;-57
2021/06/20 11:44:45;;;;;;;;;;;;;;;21.89;59.35;100654.75;5095710;28;1956;-57
2021/06/20 11:47:10;;;;;;;;;;;;;;;21.91;58.80;100658.13;5095299;28;925;-59
2021/06/20 11:49:35;;;;;;;;;;;;;;;21.92;58.72;100648.97;5095249;28;1056;-59
2021/06/20 11:52:02;;;;;;;;;;;;;;;21.91;58.83;100648.13;5095399;28;1009;-59
2021/06/20 11:54:27;;;;;;;;;;;;;;;21.91;59.15;100639.97;5095140;28;1837;-59
2021/06/20 11:56:52;;;;;;;;;;;;;;;21.91;59.23;100652.69;5095245;28;1872;-59
2021/06/20 11:59:17;;;;;;;;;;;;;;;21.91;59.26;100650.00;5095686;28;853;-57
2021/06/20 12:01:42;;;;;;;;;;;;;;;21.90;58.87;100637.44;5095031;28;972;-58
2021/06/20 12:04:07;;;;;;;;;;;;;;;21.91;59.20;100631.00;5095384;28;1906;-57
2021/06/20 12:06:33;;;;;;;;;;;;;;;21.91;58.97;100629.13;5097723;28;889;-59
2021/06/20 12:08:58;;;;;;;;;;;;;;;21.91;59.13;100622.84;5102014;28;807;-58
2021/06/20 12:11:23;;;;;;;;;;;;;;;21.92;58.78;100629.97;5101766;28;1353;-58
2021/06/20 12:13:48;;;;;;;;;;;;;;;21.91;59.36;100623.69;5101782;28;1843;-58
2021/06/20 12:16:13;;;;;;;;;;;;;;;21.92;59.29;100621.84;5102150;28;968;-58
2021/06/20 12:18:38;;;;;;;;;;;;;;;21.92;59.05;100611.81;5101769;28;937;-58
2021/06/20 12:21:03;;;;;;;;;;;;;;;21.93;59.34;100604.53;5101626;28;910;-58
2021/06/20 12:23:28;;;;;;;;;;;;;;;21.94;59.72;100611.66;5101697;28;1976;-58
2021/06/20 12:25:53;;;;;;;;;;;;;;;21.95;59.45;100610.63;5101878;28;1075;-58
2021/06/20 12:28:18;;;;;;;;;;;;;;;21.97;58.95;100614.00;5101856;28;789;-58
2021/06/20 12:30:43;;;;;;;;;;;;;;;21.96;58.92;100624.03;5101721;28;1617;-57
2021/06/20 12:33:09;;;;;;;;;;;;;;;21.96;59.76;100634.88;5101500;28;1886;-58
2021/06/20 12:35:34;;;;;;;;;;;;;;;21.98;59.74;100640.13;5101572;28;865;-58
2021/06/20 12:37:59;;;;;;;;;;;;;;;21.98;59.14;100637.41;5101603;28;1000;-59
2021/06/20 12:40:24;;;;;;;;;;;;;;;21.99;59.56;100639.09;5101999;28;905;-59